sensor_id;sensor_type;location;lat;lon;timestamp;pressure;altitude;pressure_sealevel;temperature;humidity
45941;BME280;31858;46.008;8.978;2022-10-18T00:07:57;95779.13;;;14.44;100.00
45941;BME280;31858;46.008;8.978;2022-10-18T00:17:59;95783.59;;;14.36;100.00
45941;BME280;31858;46.008;8.978;2022-10-18T00:28:02;95768.59;;;14.31;100.00
45941;BME280;31858;46.008;8.978;2022-10-18T00:38:03;95762.81;;;14.26;100.00
45941;BME280;31858;46.008;8.978;2022-10-18T00:48:06;95760.31;;;14.10;100.00
45941;BME280;31858;46.008;8.978;2022-10-18T00:58:08;95751.28;;;13.92;100.00
45941;BME280;31858;46.008;8.978;2022-10-18T01:08:38;95747.38;;;13.86;100.00
45941;BME280;31858;46.008;8.978;2022-10-18T01:18:44;95731.03;;;13.94;100.00
45941;BME280;31858;46.008;8.978;2022-10-18T01:28:56;95727.44;;;13.83;100.00
45941;BME280;31858;46.008;8.978;2022-10-18T01:39:05;95724.94;;;13.67;100.00
45941;BME280;31858;46.008;8.978;2022-10-18T01:49:09;95718.69;;;13.60;100.00
45941;BME280;31858;46.008;8.978;2022-10-18T01:59:28;95717.19;;;13.62;100.00
45941;BME280;31858;46.008;8.978;2022-10-18T02:09:36;95701.22;;;13.69;100.00
45941;BME280;31858;46.008;8.978;2022-10-18T02:19:45;95691.19;;;13.63;100.00
45941;BME280;31858;46.008;8.978;2022-10-18T02:29:50;95677.34;;;13.57;100.00
45941;BME280;31858;46.008;8.978;2022-10-18T02:39:53;95668.19;;;13.58;100.00
45941;BME280;31858;46.008;8.978;2022-10-18T02:49:54;95655.50;;;13.55;100.00
45941;BME280;31858;46.008;8.978;2022-10-18T02:59:57;95660.34;;;13.73;100.00
45941;BME280;31858;46.008;8.978;2022-10-18T03:09:59;95669.31;;;13.57;100.00
45941;BME280;31858;46.008;8.978;2022-10-18T03:20:02;95677.28;;;13.54;100.00
45941;BME280;31858;46.008;8.978;2022-10-18T03:30:04;95670.53;;;13.63;100.00
45941;BME280;31858;46.008;8.978;2022-10-18T03:40:08;95682.91;;;13.45;100.00
45941;BME280;31858;46.008;8.978;2022-10-18T03:50:10;95682.66;;;13.27;100.00
45941;BME280;31858;46.008;8.978;2022-10-18T04:00:13;95673.03;;;13.23;100.00
45941;BME280;31858;46.008;8.978;2022-10-18T04:10:15;95668.41;;;13.46;100.00
45941;BME280;31858;46.008;8.978;2022-10-18T04:20:19;95675.50;;;13.35;100.00
45941;BME280;31858;46.008;8.978;2022-10-18T04:30:20;95674.47;;;13.17;100.00
45941;BME280;31858;46.008;8.978;2022-10-18T04:40:23;95671.78;;;13.17;100.00
45941;BME280;31858;46.008;8.978;2022-10-18T04:50:25;95662.47;;;13.33;100.00
45941;BME280;31858;46.008;8.978;2022-10-18T05:00:28;95664.66;;;13.24;100.00
45941;BME280;31858;46.008;8.978;2022-10-18T05:10:30;95654.13;;;13.38;100.00
45941;BME280;31858;46.008;8.978;2022-10-18T05:20:33;95656.19;;;13.22;100.00
45941;BME280;31858;46.008;8.978;2022-10-18T05:30:36;95663.19;;;13.30;100.00
45941;BME280;31858;46.008;8.978;2022-10-18T05:40:39;95655.59;;;13.10;100.00
45941;BME280;31858;46.008;8.978;2022-10-18T05:50:41;95640.97;;;13.03;100.00
45941;BME280;31858;46.008;8.978;2022-10-18T06:00:44;95642.88;;;13.03;100.00
45941;BME280;31858;46.008;8.978;2022-10-18T06:10:45;95648.41;;;13.14;100.00
45941;BME280;31858;46.008;8.978;2022-10-18T06:30:51;95648.13;;;13.19;100.00
45941;BME280;31858;46.008;8.978;2022-10-18T06:40:53;95639.88;;;13.31;100.00
45941;BME280;31858;46.008;8.978;2022-10-18T06:50:57;95660.38;;;13.20;100.00
45941;BME280;31858;46.008;8.978;2022-10-18T07:01:04;95659.19;;;13.17;100.00
45941;BME280;31858;46.008;8.978;2022-10-18T07:11:13;95666.97;;;13.26;100.00
45941;BME280;31858;46.008;8.978;2022-10-18T07:21:17;95682.25;;;13.25;100.00
45941;BME280;31858;46.008;8.978;2022-10-18T07:31:20;95678.94;;;13.35;100.00
45941;BME280;31858;46.008;8.978;2022-10-18T07:41:22;95690.69;;;13.54;100.00
45941;BME280;31858;46.008;8.978;2022-10-18T07:51:25;95680.50;;;13.36;100.00
45941;BME280;31858;46.008;8.978;2022-10-18T08:01:27;95681.72;;;13.43;100.00
45941;BME280;31858;46.008;8.978;2022-10-18T08:11:30;95669.22;;;13.50;100.00
45941;BME280;31858;46.008;8.978;2022-10-18T08:21:32;95665.59;;;13.65;100.00
45941;BME280;31858;46.008;8.978;2022-10-18T08:31:35;95649.13;;;13.63;100.00
45941;BME280;31858;46.008;8.978;2022-10-18T08:41:49;95655.34;;;13.71;100.00
45941;BME280;31858;46.008;8.978;2022-10-18T08:51:57;95639.06;;;13.87;100.00
45941;BME280;31858;46.008;8.978;2022-10-18T09:02:07;95636.84;;;14.26;100.00
45941;BME280;31858;46.008;8.978;2022-10-18T09:12:30;95636.88;;;14.29;100.00
45941;BME280;31858;46.008;8.978;2022-10-18T09:22:47;95624.13;;;14.60;100.00
45941;BME280;31858;46.008;8.978;2022-10-18T09:32:55;95615.41;;;14.70;100.00
45941;BME280;31858;46.008;8.978;2022-10-18T09:43:04;95617.91;;;14.96;100.00
45941;BME280;31858;46.008;8.978;2022-10-18T09:53:15;95613.09;;;15.23;100.00
45941;BME280;31858;46.008;8.978;2022-10-18T10:03:18;95611.66;;;15.37;100.00
45941;BME280;31858;46.008;8.978;2022-10-18T10:13:24;95613.28;;;15.55;100.00
45941;BME280;31858;46.008;8.978;2022-10-18T10:23:29;95605.69;;;15.72;100.00
45941;BME280;31858;46.008;8.978;2022-10-18T10:33:36;95598.06;;;15.88;100.00
45941;BME280;31858;46.008;8.978;2022-10-18T10:43:38;95590.06;;;16.13;100.00
45941;BME280;31858;46.008;8.978;2022-10-18T10:53:47;95570.88;;;16.21;100.00
45941;BME280;31858;46.008;8.978;2022-10-18T11:03:53;95555.94;;;16.56;100.00
45941;BME280;31858;46.008;8.978;2022-10-18T11:13:58;95542.47;;;16.63;100.00
45941;BME280;31858;46.008;8.978;2022-10-18T11:24:06;95535.16;;;16.92;100.00
45941;BME280;31858;46.008;8.978;2022-10-18T11:34:29;95522.06;;;17.01;100.00
45941;BME280;31858;46.008;8.978;2022-10-18T11:44:38;95512.00;;;17.23;100.00
45941;BME280;31858;46.008;8.978;2022-10-18T11:55:04;95484.91;;;17.58;100.00
45941;BME280;31858;46.008;8.978;2022-10-18T12:05:10;95477.84;;;17.86;100.00
45941;BME280;31858;46.008;8.978;2022-10-18T12:15:17;95455.81;;;17.98;100.00
45941;BME280;31858;46.008;8.978;2022-10-18T12:25:20;95450.59;;;18.21;100.00
45941;BME280;31858;46.008;8.978;2022-10-18T12:35:23;95432.72;;;18.38;100.00
45941;BME280;31858;46.008;8.978;2022-10-18T12:45:28;95419.44;;;18.58;100.00
45941;BME280;31858;46.008;8.978;2022-10-18T12:55:35;95405.97;;;18.96;100.00
45941;BME280;31858;46.008;8.978;2022-10-18T13:05:53;95391.19;;;19.04;100.00
45941;BME280;31858;46.008;8.978;2022-10-18T13:16:02;95375.06;;;19.27;100.00
45941;BME280;31858;46.008;8.978;2022-10-18T13:26:16;95372.53;;;19.43;100.00
45941;BME280;31858;46.008;8.978;2022-10-18T13:36:22;95368.56;;;19.51;100.00
45941;BME280;31858;46.008;8.978;2022-10-18T13:57:12;95358.16;;;19.77;100.00
45941;BME280;31858;46.008;8.978;2022-10-18T14:07:17;95353.56;;;19.97;100.00
45941;BME280;31858;46.008;8.978;2022-10-18T14:17:27;95354.28;;;20.01;100.00
45941;BME280;31858;46.008;8.978;2022-10-18T14:27:31;95353.69;;;20.13;100.00
45941;BME280;31858;46.008;8.978;2022-10-18T14:37:35;95352.22;;;20.09;100.00
45941;BME280;31858;46.008;8.978;2022-10-18T14:47:36;95341.34;;;19.89;100.00
45941;BME280;31858;46.008;8.978;2022-10-18T14:57:41;95333.63;;;19.87;100.00
45941;BME280;31858;46.008;8.978;2022-10-18T15:07:43;95324.41;;;19.85;100.00
45941;BME280;31858;46.008;8.978;2022-10-18T15:17:46;95321.66;;;19.88;100.00
45941;BME280;31858;46.008;8.978;2022-10-18T15:27:50;95323.81;;;19.74;100.00
45941;BME280;31858;46.008;8.978;2022-10-18T15:37:55;95319.41;;;19.60;100.00
45941;BME280;31858;46.008;8.978;2022-10-18T15:48:00;95313.69;;;19.54;100.00
45941;BME280;31858;46.008;8.978;2022-10-18T15:58:04;95309.50;;;19.50;100.00
45941;BME280;31858;46.008;8.978;2022-10-18T16:08:05;95309.97;;;19.45;100.00
45941;BME280;31858;46.008;8.978;2022-10-18T16:18:12;95306.78;;;19.27;100.00
45941;BME280;31858;46.008;8.978;2022-10-18T16:28:16;95311.81;;;18.98;100.00
45941;BME280;31858;46.008;8.978;2022-10-18T16:38:27;95316.28;;;19.08;100.00
45941;BME280;31858;46.008;8.978;2022-10-18T16:48:29;95318.84;;;18.54;100.00
45941;BME280;31858;46.008;8.978;2022-10-18T16:58:32;95324.41;;;18.06;100.00
45941;BME280;31858;46.008;8.978;2022-10-18T17:08:34;95321.94;;;17.77;100.00
45941;BME280;31858;46.008;8.978;2022-10-18T17:18:37;95340.94;;;17.56;100.00
45941;BME280;31858;46.008;8.978;2022-10-18T17:28:38;95348.75;;;17.40;100.00
45941;BME280;31858;46.008;8.978;2022-10-18T17:38:41;95346.56;;;17.24;100.00
45941;BME280;31858;46.008;8.978;2022-10-18T17:48:43;95341.63;;;17.12;100.00
45941;BME280;31858;46.008;8.978;2022-10-18T17:58:49;95345.16;;;16.98;100.00
45941;BME280;31858;46.008;8.978;2022-10-18T18:08:51;95337.56;;;16.82;100.00
45941;BME280;31858;46.008;8.978;2022-10-18T18:18:55;95349.47;;;16.85;100.00
45941;BME280;31858;46.008;8.978;2022-10-18T18:28:57;95344.16;;;16.67;100.00
45941;BME280;31858;46.008;8.978;2022-10-18T18:39:00;95339.91;;;16.73;100.00
45941;BME280;31858;46.008;8.978;2022-10-18T18:49:04;95349.94;;;16.51;100.00
45941;BME280;31858;46.008;8.978;2022-10-18T18:59:07;95353.44;;;16.41;100.00
45941;BME280;31858;46.008;8.978;2022-10-18T19:09:10;95358.41;;;16.46;100.00
45941;BME280;31858;46.008;8.978;2022-10-18T19:19:21;95353.44;;;16.38;100.00
45941;BME280;31858;46.008;8.978;2022-10-18T19:29:24;95355.38;;;16.23;100.00
45941;BME280;31858;46.008;8.978;2022-10-18T19:39:30;95361.50;;;16.38;100.00
45941;BME280;31858;46.008;8.978;2022-10-18T19:49:32;95358.41;;;16.46;100.00
45941;BME280;31858;46.008;8.978;2022-10-18T19:59:35;95356.16;;;16.20;100.00
45941;BME280;31858;46.008;8.978;2022-10-18T20:09:37;95360.00;;;16.15;100.00
45941;BME280;31858;46.008;8.978;2022-10-18T20:19:40;95358.47;;;16.18;100.00
45941;BME280;31858;46.008;8.978;2022-10-18T20:29:42;95362.34;;;16.03;100.00
45941;BME280;31858;46.008;8.978;2022-10-18T20:39:45;95365.03;;;15.99;100.00
45941;BME280;31858;46.008;8.978;2022-10-18T20:49:47;95364.25;;;15.77;100.00
45941;BME280;31858;46.008;8.978;2022-10-18T20:59:49;95360.41;;;15.85;100.00
45941;BME280;31858;46.008;8.978;2022-10-18T21:09:51;95361.97;;;15.79;100.00
45941;BME280;31858;46.008;8.978;2022-10-18T21:19:54;95353.13;;;15.72;100.00
45941;BME280;31858;46.008;8.978;2022-10-18T21:29:56;95351.59;;;15.63;100.00
45941;BME280;31858;46.008;8.978;2022-10-18T21:39:59;95341.22;;;15.44;100.00
45941;BME280;31858;46.008;8.978;2022-10-18T21:50:00;95333.16;;;15.48;100.00
45941;BME280;31858;46.008;8.978;2022-10-18T22:00:05;95325.88;;;15.45;100.00
45941;BME280;31858;46.008;8.978;2022-10-18T22:10:08;95326.25;;;15.43;100.00
45941;BME280;31858;46.008;8.978;2022-10-18T22:20:11;95317.81;;;15.41;100.00
45941;BME280;31858;46.008;8.978;2022-10-18T22:30:13;95321.25;;;15.20;100.00
45941;BME280;31858;46.008;8.978;2022-10-18T22:40:16;95308.56;;;15.17;100.00
45941;BME280;31858;46.008;8.978;2022-10-18T22:50:17;95298.22;;;15.16;100.00
45941;BME280;31858;46.008;8.978;2022-10-18T23:00:20;95296.28;;;14.98;100.00
45941;BME280;31858;46.008;8.978;2022-10-18T23:10:22;95299.31;;;14.93;100.00
45941;BME280;31858;46.008;8.978;2022-10-18T23:20:26;95285.56;;;15.09;100.00
45941;BME280;31858;46.008;8.978;2022-10-18T23:30:28;95284.75;;;14.94;100.00
45941;BME280;31858;46.008;8.978;2022-10-18T23:40:31;95289.38;;;14.97;100.00
45941;BME280;31858;46.008;8.978;2022-10-18T23:50:32;95275.91;;;14.83;100.00
